createdAt,value
2018-08-24T01:43:26.560Z,98924.55
2018-08-24T01:45:54.210Z,98917.84
2018-08-24T01:48:22.104Z,98920.08
2018-08-24T01:50:49.745Z,98918.27
2018-08-24T01:53:17.350Z,98921.00
2018-08-24T01:55:44.995Z,98915.61
2018-08-24T01:58:12.594Z,98916.09
2018-08-24T02:00:40.284Z,98911.09
2018-08-24T02:03:07.922Z,98915.41
2018-08-24T02:05:35.687Z,98910.36
2018-08-24T02:08:03.352Z,98916.77
2018-08-24T02:10:31.107Z,98923.77
2018-08-24T02:12:58.731Z,98917.67
2018-08-24T02:15:26.450Z,98921.59
2018-08-24T02:17:54.180Z,98915.92
2018-08-24T02:20:27.322Z,98914.81
2018-08-24T02:22:55.002Z,98918.30
2018-08-24T02:25:22.599Z,98922.48
2018-08-24T02:27:50.285Z,98918.98
2018-08-24T02:30:17.923Z,98924.80
2018-08-24T02:32:46.439Z,98919.89
2018-08-24T02:35:14.521Z,98919.17
2018-08-24T02:37:42.208Z,98916.39
2018-08-24T02:40:10.000Z,98926.02
2018-08-24T02:42:37.759Z,98929.13
2018-08-24T02:45:05.666Z,98919.73
2018-08-24T02:47:33.183Z,98922.19
2018-08-24T02:50:00.753Z,98921.55
2018-08-24T02:52:28.516Z,98914.19
2018-08-24T02:54:56.042Z,98914.06
2018-08-24T02:57:23.621Z,98910.06
2018-08-24T02:59:51.154Z,98907.66
2018-08-24T03:02:18.744Z,98903.83
2018-08-24T03:04:46.274Z,98907.98
2018-08-24T03:07:13.812Z,98909.13
2018-08-24T03:09:41.373Z,98908.23
2018-08-24T03:12:08.902Z,98907.07
2018-08-24T03:14:36.486Z,98905.94
2018-08-24T03:17:04.035Z,98907.35
2018-08-24T03:19:32.728Z,98904.16
2018-08-24T03:22:00.258Z,98907.77
2018-08-24T03:24:27.845Z,98904.97
2018-08-24T03:26:55.369Z,98906.25
2018-08-24T03:29:24.195Z,98906.53
2018-08-24T03:31:51.797Z,98904.98
2018-08-24T03:34:19.325Z,98909.97
2018-08-24T03:36:46.882Z,98915.77
2018-08-24T03:39:14.439Z,98916.39
2018-08-24T03:41:42.031Z,98919.27
2018-08-24T03:44:09.729Z,98921.52
2018-08-24T03:46:37.283Z,98924.35
2018-08-24T03:49:04.845Z,98915.67
2018-08-24T03:51:32.453Z,98920.36
2018-08-24T03:54:00.345Z,98914.03
2018-08-24T03:56:27.920Z,98921.45
2018-08-24T03:58:55.480Z,98921.52
2018-08-24T04:01:23.023Z,98925.98
2018-08-24T04:03:50.598Z,98922.62
2018-08-24T04:06:18.158Z,98916.00
2018-08-24T04:08:45.931Z,98917.52
2018-08-24T04:11:13.531Z,98925.75
2018-08-24T04:13:41.074Z,98922.72
2018-08-24T04:16:08.660Z,98927.35
2018-08-24T04:18:36.182Z,98926.80
2018-08-24T04:21:03.756Z,98929.75
2018-08-24T04:23:31.351Z,98927.72
2018-08-24T04:25:58.924Z,98921.23
2018-08-24T04:28:26.495Z,98926.86
2018-08-24T04:30:54.092Z,98925.55
2018-08-24T04:33:21.636Z,98926.11
2018-08-24T04:35:49.214Z,98931.77
2018-08-24T04:38:16.790Z,98936.89
2018-08-24T04:40:44.352Z,98933.78
2018-08-24T04:43:11.938Z,98938.51
2018-08-24T04:45:39.619Z,98941.89
2018-08-24T04:48:07.080Z,98940.80
2018-08-24T04:50:34.613Z,98931.64
2018-08-24T04:53:02.172Z,98936.13
2018-08-24T04:55:29.686Z,98940.57
2018-08-24T04:57:57.268Z,98948.15
2018-08-24T05:00:24.800Z,98947.59
2018-08-24T05:02:52.382Z,98940.33
2018-08-24T05:05:19.927Z,98952.78
2018-08-24T05:07:47.503Z,98962.23
2018-08-24T05:10:15.078Z,98956.58
2018-08-24T05:12:42.673Z,98959.63
2018-08-24T05:15:10.240Z,98951.52
2018-08-24T05:17:37.755Z,98956.14
2018-08-24T05:20:05.365Z,98958.83
2018-08-24T05:22:32.934Z,98964.68
2018-08-24T05:25:00.505Z,98959.14
2018-08-24T05:27:28.030Z,98963.25
2018-08-24T05:29:55.728Z,98972.70
2018-08-24T05:32:23.457Z,98974.78
2018-08-24T05:34:51.048Z,98976.59
2018-08-24T05:37:18.605Z,98967.02
2018-08-24T05:39:46.153Z,98975.36
2018-08-24T05:42:13.764Z,98977.99
2018-08-24T05:44:41.399Z,98970.06
2018-08-24T05:47:08.954Z,98977.97
2018-08-24T05:49:36.676Z,98972.13
2018-08-24T05:52:04.266Z,98979.75
2018-08-24T05:54:31.853Z,98981.43
2018-08-24T05:56:59.374Z,98982.92
2018-08-24T05:59:26.900Z,98987.25
2018-08-24T06:01:54.469Z,98977.63
2018-08-24T06:04:22.011Z,98976.73
2018-08-24T06:06:49.579Z,98976.75
2018-08-24T06:09:17.119Z,98983.73
2018-08-24T06:11:44.702Z,98982.38
2018-08-24T06:14:12.235Z,98983.73
2018-08-24T06:16:39.799Z,98976.18
2018-08-24T06:19:07.381Z,98991.28
2018-08-24T06:21:34.910Z,98988.66
2018-08-24T06:24:02.547Z,98984.64
2018-08-24T06:26:30.139Z,98990.06
2018-08-24T06:28:57.677Z,98986.03
2018-08-24T06:31:25.208Z,98991.15
2018-08-24T06:33:52.762Z,98995.37
2018-08-24T06:36:20.470Z,98995.37
2018-08-24T06:38:48.088Z,99001.89
2018-08-24T06:41:15.609Z,99000.98
2018-08-24T06:43:43.181Z,99004.87
2018-08-24T06:46:10.720Z,99007.05
2018-08-24T06:48:38.435Z,99013.64
2018-08-24T06:51:06.041Z,99004.77
2018-08-24T06:53:33.933Z,99008.23
2018-08-24T06:56:01.458Z,99009.06
2018-08-24T06:58:29.222Z,99011.06
2018-08-24T07:00:57.146Z,99004.23
2018-08-24T07:03:24.712Z,99010.43
2018-08-24T07:05:52.412Z,99013.56
2018-08-24T07:08:19.985Z,99012.85
2018-08-24T07:10:47.554Z,99020.61
2018-08-24T07:13:15.161Z,99009.41
2018-08-24T07:15:42.745Z,99019.00
2018-08-24T07:18:10.487Z,99015.27
2018-08-24T07:20:38.058Z,99019.05
2018-08-24T07:23:05.641Z,99021.84
2018-08-24T07:25:33.410Z,99030.81
2018-08-24T07:28:01.113Z,99035.96
2018-08-24T07:30:28.700Z,99032.03
2018-08-24T07:32:56.630Z,99037.69
2018-08-24T07:35:25.289Z,99031.93
2018-08-24T07:37:52.835Z,99043.68
2018-08-24T07:40:20.659Z,99040.00
2018-08-24T07:42:48.258Z,99037.71
2018-08-24T07:45:16.721Z,99042.89
2018-08-24T07:47:44.322Z,99039.23
2018-08-24T07:50:11.956Z,99039.89
2018-08-24T07:52:39.762Z,99047.59
2018-08-24T07:55:09.330Z,99047.66
2018-08-24T07:57:37.255Z,99049.59
2018-08-24T08:00:05.069Z,99054.87
2018-08-24T08:02:32.793Z,99057.92
2018-08-24T08:05:00.369Z,99055.96
2018-08-24T08:07:27.931Z,99063.39
2018-08-24T08:09:55.686Z,99057.95
2018-08-24T08:12:23.292Z,99046.34
2018-08-24T08:14:50.902Z,99060.48
2018-08-24T08:17:18.596Z,99065.13
2018-08-24T08:19:46.178Z,99063.30
2018-08-24T08:22:13.929Z,99067.09
2018-08-24T08:24:41.497Z,99073.31
2018-08-24T08:27:09.115Z,99080.45
2018-08-24T08:29:36.690Z,99086.19
2018-08-24T08:32:04.337Z,99091.59
2018-08-24T08:34:32.053Z,99091.94
2018-08-24T08:36:59.629Z,99102.30
2018-08-24T08:39:27.250Z,99110.05
2018-08-24T08:41:54.827Z,99109.80
2018-08-24T08:44:22.501Z,99120.57
2018-08-24T08:46:50.085Z,99124.58
2018-08-24T08:49:17.647Z,99122.72
2018-08-24T08:51:45.238Z,99119.02
2018-08-24T08:54:12.807Z,99121.41
2018-08-24T08:56:40.504Z,99125.80
2018-08-24T08:59:08.276Z,99129.45
2018-08-24T09:01:35.806Z,99126.14
2018-08-24T09:04:03.397Z,99128.98
2018-08-24T09:06:31.075Z,99131.49
2018-08-24T09:08:58.558Z,99129.58
2018-08-24T09:11:26.083Z,99131.78
2018-08-24T09:13:53.661Z,99136.14
2018-08-24T09:16:21.276Z,99136.91
2018-08-24T09:19:05.574Z,99146.97
2018-08-24T09:21:48.092Z,99149.13
2018-08-24T09:24:31.290Z,99153.91
2018-08-24T09:27:14.662Z,99159.09
2018-08-24T09:29:42.233Z,99157.95
2018-08-24T09:32:10.685Z,99154.81
2018-08-24T09:34:38.302Z,99155.55
2018-08-24T09:37:05.843Z,99151.85
2018-08-24T09:39:33.597Z,99160.51
2018-08-24T09:42:01.189Z,99162.55
2018-08-24T09:44:29.019Z,99160.88
2018-08-24T09:46:56.865Z,99159.59
2018-08-24T09:49:24.566Z,99162.31
2018-08-24T09:51:52.244Z,99159.77
2018-08-24T09:54:19.840Z,99163.08
2018-08-24T09:56:47.473Z,99162.22
2018-08-24T09:59:15.052Z,99153.92
2018-08-24T10:02:01.323Z,99156.93
2018-08-24T10:04:48.552Z,99161.08
2018-08-24T10:07:20.960Z,99162.05
2018-08-24T10:09:48.561Z,99155.55
2018-08-24T10:12:16.088Z,99159.34
2018-08-24T10:14:43.684Z,99159.23
2018-08-24T10:17:11.217Z,99161.03
2018-08-24T10:19:38.790Z,99156.02
2018-08-24T10:22:06.316Z,99160.83
2018-08-24T10:24:33.864Z,99160.00
2018-08-24T10:27:01.420Z,99161.36
2018-08-24T10:29:29.084Z,99157.13
2018-08-24T10:31:56.569Z,99156.94
2018-08-24T10:34:24.122Z,99162.48
2018-08-24T10:36:51.689Z,99159.23
2018-08-24T10:39:19.208Z,99156.08
2018-08-24T10:41:46.762Z,99161.00
2018-08-24T10:44:14.281Z,99163.76
2018-08-24T10:46:41.842Z,99153.72
2018-08-24T10:49:09.376Z,99167.44
2018-08-24T10:51:36.957Z,99160.22
2018-08-24T10:54:04.519Z,99156.48
2018-08-24T10:56:32.047Z,99168.48
2018-08-24T10:58:59.625Z,99159.33
2018-08-24T11:01:27.134Z,99160.33
2018-08-24T11:03:54.690Z,99160.38
2018-08-24T11:06:22.229Z,99158.98
2018-08-24T11:08:49.757Z,99163.78
2018-08-24T11:11:17.329Z,99162.71
2018-08-24T11:13:44.897Z,99163.20
2018-08-24T11:16:12.451Z,99164.66
2018-08-24T11:18:39.976Z,99165.80
2018-08-24T11:21:07.524Z,99168.11
2018-08-24T11:23:35.180Z,99170.05
2018-08-24T11:26:02.795Z,99171.97
2018-08-24T11:28:30.364Z,99177.27
2018-08-24T11:30:58.365Z,99170.02
2018-08-24T11:33:25.938Z,99172.94
2018-08-24T11:35:53.469Z,99173.55
2018-08-24T11:38:21.121Z,99170.51
2018-08-24T11:40:48.674Z,99179.67
2018-08-24T11:43:16.401Z,99169.64
2018-08-24T11:45:43.921Z,99174.55
2018-08-24T11:48:11.571Z,99173.28
2018-08-24T11:50:39.569Z,99167.70
2018-08-24T11:53:07.176Z,99170.67
2018-08-24T11:55:34.733Z,99157.08
2018-08-24T11:58:02.274Z,99151.41
2018-08-24T12:00:29.783Z,99156.05
2018-08-24T12:02:57.718Z,99161.53
2018-08-24T12:05:25.271Z,99161.88
2018-08-24T12:07:52.874Z,99169.09
2018-08-24T12:10:20.439Z,99154.61
2018-08-24T12:12:48.078Z,99155.02
2018-08-24T12:15:15.861Z,99158.14
2018-08-24T12:17:43.602Z,99154.08
2018-08-24T12:20:11.165Z,99155.15
2018-08-24T12:22:38.731Z,99154.46
2018-08-24T12:25:06.419Z,99151.14
2018-08-24T12:27:34.105Z,99151.56
2018-08-24T12:30:01.691Z,99152.33
2018-08-24T12:32:29.293Z,99150.38
2018-08-24T12:34:57.565Z,99149.67
2018-08-24T12:37:25.126Z,99155.28
2018-08-24T12:39:52.773Z,99141.99
2018-08-24T12:42:20.303Z,99141.54
2018-08-24T12:44:47.923Z,99151.69
2018-08-24T12:47:15.461Z,99156.38
2018-08-24T12:49:43.237Z,99153.61
2018-08-24T12:52:10.855Z,99145.91
2018-08-24T12:54:38.362Z,99161.71
2018-08-24T12:57:05.932Z,99142.31
2018-08-24T12:59:33.647Z,99144.27
2018-08-24T13:02:01.218Z,99145.41
2018-08-24T13:04:28.800Z,99148.32
2018-08-24T13:06:56.381Z,99137.50
2018-08-24T13:09:23.929Z,99142.48
2018-08-24T13:11:51.494Z,99127.96
2018-08-24T13:14:19.096Z,99142.15
2018-08-24T13:16:46.674Z,99139.63
2018-08-24T13:19:14.201Z,99140.09
2018-08-24T13:21:41.730Z,99146.44
2018-08-24T13:24:09.483Z,99138.66
2018-08-24T13:26:37.015Z,99135.24
2018-08-24T13:29:04.600Z,99133.70
2018-08-24T13:31:32.179Z,99134.79
2018-08-24T13:33:59.708Z,99120.16
2018-08-24T13:36:27.259Z,99125.14
2018-08-24T13:38:54.870Z,99127.62
2018-08-24T13:41:22.421Z,99134.16
2018-08-24T13:43:49.944Z,99128.60
2018-08-24T13:46:17.513Z,99123.78
2018-08-24T13:48:45.067Z,99119.50
2018-08-24T13:51:12.634Z,99120.20
2018-08-24T13:53:40.176Z,99113.52
2018-08-24T13:56:07.690Z,99120.05
2018-08-24T13:58:35.278Z,99115.08
2018-08-24T14:01:02.799Z,99114.73
2018-08-24T14:03:30.357Z,99121.23
2018-08-24T14:05:57.869Z,99120.81
2018-08-24T14:08:25.417Z,99114.98
2018-08-24T14:10:53.174Z,99109.02
2018-08-24T14:13:20.826Z,99110.08
2018-08-24T14:15:48.372Z,99110.30
2018-08-24T14:18:15.960Z,99112.34
2018-08-24T14:20:43.509Z,99108.09
2018-08-24T14:23:11.034Z,99100.14
2018-08-24T14:25:38.649Z,99106.18
2018-08-24T14:28:06.139Z,99102.14
2018-08-24T14:30:33.697Z,99102.73
2018-08-24T14:33:01.252Z,99099.92
2018-08-24T14:35:36.877Z,99098.37
2018-08-24T14:38:04.549Z,99096.77
2018-08-24T14:40:32.087Z,99111.47
2018-08-24T14:42:59.595Z,99109.48
2018-08-24T14:45:27.171Z,99106.22
2018-08-24T14:47:54.722Z,99098.41
2018-08-24T14:50:22.306Z,99103.34
2018-08-24T14:52:49.833Z,99104.48
2018-08-24T14:55:17.478Z,99105.05
2018-08-24T14:57:44.997Z,99097.81
2018-08-24T15:00:12.585Z,99088.72
2018-08-24T15:02:40.153Z,99095.07
2018-08-24T15:05:07.808Z,99097.95
2018-08-24T15:07:35.347Z,99095.96
2018-08-24T15:10:03.016Z,99082.90
2018-08-24T15:12:30.545Z,99090.21
2018-08-24T15:14:58.071Z,99090.98
2018-08-24T15:17:25.618Z,99090.39
2018-08-24T15:19:53.231Z,99084.64
2018-08-24T15:22:20.814Z,99084.86
2018-08-24T15:24:48.346Z,99086.02
2018-08-24T15:27:15.868Z,99082.72
2018-08-24T15:29:43.460Z,99080.13
2018-08-24T15:32:10.993Z,99083.61
2018-08-24T15:34:38.575Z,99088.58
2018-08-24T15:37:06.140Z,99089.32
2018-08-24T15:39:33.664Z,99087.26
2018-08-24T15:42:01.271Z,99094.81
2018-08-24T15:44:28.799Z,99099.43
2018-08-24T15:46:56.559Z,99090.00
2018-08-24T15:49:24.105Z,99096.24
2018-08-24T15:51:51.773Z,99094.66
2018-08-24T15:54:19.372Z,99092.83
2018-08-24T15:56:46.893Z,99101.04
2018-08-24T15:59:14.428Z,99100.39
2018-08-24T16:01:41.993Z,99103.26
2018-08-24T16:04:09.532Z,99099.90
2018-08-24T16:06:37.134Z,99102.23
2018-08-24T16:09:04.653Z,99100.45
2018-08-24T16:11:32.207Z,99112.72
2018-08-24T16:13:59.712Z,99109.15
2018-08-24T16:16:27.261Z,99105.67
2018-08-24T16:18:54.800Z,99106.64
2018-08-24T16:21:22.361Z,99109.89
2018-08-24T16:23:49.936Z,99106.30
2018-08-24T16:26:17.474Z,99100.39
2018-08-24T16:28:45.031Z,99112.25
2018-08-24T16:31:12.558Z,99105.41
2018-08-24T16:33:40.135Z,99104.52
2018-08-24T16:36:07.658Z,99106.04
2018-08-24T16:38:35.235Z,99108.31
2018-08-24T16:41:02.812Z,99106.56
2018-08-24T16:43:30.360Z,99107.39
2018-08-24T16:45:57.941Z,99108.12
2018-08-24T16:48:25.526Z,99104.84
2018-08-24T16:50:53.069Z,99109.34
2018-08-24T16:53:20.645Z,99104.96
2018-08-24T16:55:48.166Z,99105.46
2018-08-24T16:58:15.681Z,99105.38
2018-08-24T17:00:43.249Z,99097.66
2018-08-24T17:03:10.836Z,99098.98
2018-08-24T17:05:38.340Z,99105.44
2018-08-24T17:08:05.843Z,99104.41
2018-08-24T17:10:33.528Z,99111.42
2018-08-24T17:13:01.048Z,99106.53
2018-08-24T17:15:28.602Z,99103.98
2018-08-24T17:17:56.278Z,99103.19
2018-08-24T17:20:23.791Z,99109.41
2018-08-24T17:22:51.427Z,99098.97
2018-08-24T17:25:19.014Z,99099.47
2018-08-24T17:27:46.625Z,99090.50
2018-08-24T17:30:14.197Z,99094.77
2018-08-24T17:32:41.718Z,99093.39
2018-08-24T17:35:09.575Z,99090.56
2018-08-24T17:37:37.092Z,99088.32
2018-08-24T17:40:04.660Z,99092.47
2018-08-24T17:42:32.173Z,99097.92
2018-08-24T17:44:59.725Z,99099.27
2018-08-24T17:47:27.439Z,99098.62
2018-08-24T17:49:54.997Z,99097.91
2018-08-24T17:52:22.516Z,99097.48
2018-08-24T17:54:50.065Z,99094.41
2018-08-24T17:57:17.588Z,99091.38
2018-08-24T17:59:45.109Z,99090.92
2018-08-24T18:02:12.658Z,99089.84
2018-08-24T18:04:40.161Z,99098.71
2018-08-24T18:07:07.779Z,99097.78
2018-08-24T18:09:35.274Z,99085.64
2018-08-24T18:12:02.860Z,99094.44
2018-08-24T18:14:30.393Z,99090.59
2018-08-24T18:16:57.945Z,99091.67
2018-08-24T18:19:25.449Z,99090.97
2018-08-24T18:21:53.034Z,99101.80
2018-08-24T18:24:20.574Z,99106.44
2018-08-24T18:26:48.185Z,99102.31
2018-08-24T18:29:15.706Z,99098.72
2018-08-24T18:31:43.269Z,99098.48
2018-08-24T18:34:10.779Z,99099.13
2018-08-24T18:36:38.375Z,99103.55
2018-08-24T18:39:05.867Z,99101.08
2018-08-24T18:41:33.393Z,99098.45
2018-08-24T18:44:01.023Z,99095.31
2018-08-24T18:46:28.538Z,99095.15
2018-08-24T18:48:56.047Z,99099.25
2018-08-24T18:51:23.602Z,99096.47
2018-08-24T18:53:51.122Z,99101.98
2018-08-24T18:56:18.913Z,99096.09
2018-08-24T18:58:46.543Z,99098.23
2018-08-24T19:01:14.124Z,99097.78
2018-08-24T19:03:41.673Z,99106.06
2018-08-24T19:06:09.179Z,99100.84
2018-08-24T19:08:36.744Z,99109.20
2018-08-24T19:11:04.279Z,99104.86
2018-08-24T19:13:31.805Z,99103.55
2018-08-24T19:15:59.373Z,99114.17
2018-08-24T19:18:43.606Z,99112.84
2018-08-24T19:21:26.071Z,99113.70
2018-08-24T19:23:53.590Z,99115.05
2018-08-24T19:26:21.183Z,99116.55
2018-08-24T19:28:48.730Z,99116.82
2018-08-24T19:31:16.248Z,99121.70
2018-08-24T19:33:43.817Z,99121.38
2018-08-24T19:36:11.351Z,99116.27
2018-08-24T19:38:38.917Z,99115.39
2018-08-24T19:41:22.257Z,99112.41
2018-08-24T19:43:49.864Z,99110.30
2018-08-24T19:46:17.429Z,99107.97
2018-08-24T19:49:00.638Z,99105.39
2018-08-24T19:51:28.202Z,99109.31
2018-08-24T19:53:55.759Z,99107.09
2018-08-24T19:56:23.340Z,99107.17
2018-08-24T19:59:07.363Z,99105.88
2018-08-24T20:01:34.871Z,99106.73
2018-08-24T20:04:02.433Z,99109.89
2018-08-24T20:06:30.022Z,99106.50
2018-08-24T20:08:58.385Z,99101.47
2018-08-24T20:11:25.963Z,99097.47
2018-08-24T20:13:53.518Z,99103.70
2018-08-24T20:16:26.581Z,99097.53
2018-08-24T20:18:54.154Z,99094.13
2018-08-24T20:21:21.954Z,99088.64
2018-08-24T20:23:49.513Z,99086.97
2018-08-24T20:26:17.060Z,99086.37
2018-08-24T20:28:44.578Z,99077.88
2018-08-24T20:31:12.157Z,99070.20
2018-08-24T20:33:39.755Z,99077.81
2018-08-24T20:36:07.325Z,99075.81
2018-08-24T20:38:34.850Z,99064.31
2018-08-24T20:41:02.468Z,99064.69
2018-08-24T20:43:30.013Z,99063.73
2018-08-24T20:45:57.557Z,99067.66
2018-08-24T20:48:25.130Z,99064.14
2018-08-24T20:50:52.666Z,99065.97
2018-08-24T20:53:20.174Z,99063.67
2018-08-24T20:55:47.887Z,99066.96
2018-08-24T20:58:15.433Z,99065.95
2018-08-24T21:00:43.099Z,99065.63
2018-08-24T21:03:10.633Z,99067.98
2018-08-24T21:05:38.182Z,99063.26
2018-08-24T21:08:05.733Z,99061.41
2018-08-24T21:10:33.267Z,99054.64
2018-08-24T21:13:00.855Z,99053.35
2018-08-24T21:15:28.391Z,99053.23
2018-08-24T21:17:55.958Z,99053.95
2018-08-24T21:20:23.503Z,99053.08
2018-08-24T21:22:51.069Z,99047.20
2018-08-24T21:25:18.641Z,99046.82
2018-08-24T21:27:46.169Z,99044.03
2018-08-24T21:30:13.887Z,99041.98
2018-08-24T21:32:41.435Z,99040.15
2018-08-24T21:35:08.957Z,99032.95
2018-08-24T21:37:36.522Z,99028.25
2018-08-24T21:40:04.036Z,99034.83
2018-08-24T21:42:31.601Z,99028.08
2018-08-24T21:44:59.181Z,99028.75
2018-08-24T21:47:26.747Z,99032.58
2018-08-24T21:49:54.338Z,99037.86
2018-08-24T21:52:21.894Z,99020.09
2018-08-24T21:54:49.424Z,99025.96
2018-08-24T21:57:16.944Z,99025.77
2018-08-24T21:59:44.525Z,99032.05
2018-08-24T22:02:12.041Z,99031.13
2018-08-24T22:04:39.562Z,99036.61
2018-08-24T22:07:07.140Z,99032.42
2018-08-24T22:09:34.705Z,99034.17
2018-08-24T22:12:02.259Z,99035.16
2018-08-24T22:14:29.985Z,99029.23
2018-08-24T22:16:57.565Z,99033.97
2018-08-24T22:19:25.063Z,99036.88
2018-08-24T22:21:52.653Z,99031.31
2018-08-24T22:24:20.190Z,99035.27
2018-08-24T22:26:47.733Z,99036.02
2018-08-24T22:29:15.312Z,99038.25
2018-08-24T22:31:42.857Z,99034.13
2018-08-24T22:34:10.443Z,99035.34
2018-08-24T22:36:37.951Z,99037.01
2018-08-24T22:39:05.464Z,99035.73
2018-08-24T22:41:33.042Z,99032.58
2018-08-24T22:44:00.625Z,99031.67
2018-08-24T22:46:28.191Z,99031.67
2018-08-24T22:48:55.756Z,99029.62
2018-08-24T22:51:23.460Z,99026.81
2018-08-24T22:53:50.977Z,99023.02
2018-08-24T22:56:18.517Z,99019.91
2018-08-24T22:58:46.092Z,99024.01
2018-08-24T23:01:13.798Z,99020.78
2018-08-24T23:03:41.343Z,99015.48
2018-08-24T23:06:08.866Z,99012.88
2018-08-24T23:08:36.414Z,99017.27
2018-08-24T23:11:03.914Z,99011.25
2018-08-24T23:13:31.461Z,99011.84
2018-08-24T23:15:58.966Z,99009.56
2018-08-24T23:18:26.523Z,99002.19
2018-08-24T23:20:54.090Z,98997.42
2018-08-24T23:23:21.634Z,98994.55
2018-08-24T23:25:49.253Z,98992.31
2018-08-24T23:28:16.957Z,98994.55
2018-08-24T23:30:44.595Z,98988.20
2018-08-24T23:33:12.390Z,98978.53
2018-08-24T23:35:39.976Z,98974.85
2018-08-24T23:38:07.662Z,98979.48
2018-08-24T23:40:35.348Z,98971.94
2018-08-24T23:43:03.073Z,98967.72
2018-08-24T23:45:30.656Z,98968.01
2018-08-24T23:47:58.236Z,98969.84
2018-08-24T23:50:25.977Z,98965.50
2018-08-24T23:52:53.577Z,98963.11
2018-08-24T23:55:21.189Z,98960.06
2018-08-24T23:57:48.896Z,98956.02
